Time;durP1;ratioP1;P1;durP2;ratioP2;P2;SDS_P1;SDS_P2;PMS_P1;PMS_P2;Temp;Humidity;BMP_temperature;BMP_pressure;BME280_temperature;BME280_humidity;BME280_pressure;Samples;Min_cycle;Max_cycle;Signal;HPM_P1;HPM_P2
2023/07/06 00:02:25;;;;;;;;;;;;;;;-144.86;100.00;65694.16;5079992;28;19989;-61
2023/07/06 00:04:54;;;;;;;;;;;;;;;-144.86;100.00;65694.16;5077960;28;20006;-59
2023/07/06 00:07:22;;;;;;;;;;;;;;;-144.86;100.00;65694.16;5079235;28;20410;-60
2023/07/06 00:09:51;;;;;;;;;;;;;;;-144.86;100.00;65694.16;5078416;28;19932;-61
2023/07/06 00:12:19;;;;;;;;;;;;;;;-144.86;100.00;65694.16;5078760;28;20027;-59
2023/07/06 00:14:47;;;;;;;;;;;;;;;-144.86;100.00;65694.16;5077699;28;19993;-62
2023/07/06 00:17:16;;;;;;;;;;;;;;;-144.86;100.00;65694.16;5079080;28;20915;-60
2023/07/06 00:19:46;;;;;;;;;;;;;;;-144.86;100.00;65694.16;5075943;28;19928;-59
2023/07/06 00:22:16;;;;;;;;;;;;;;;-144.86;100.00;65694.16;5060916;28;19924;-59
2023/07/06 00:24:46;;;;;;;;;;;;;;;-144.86;100.00;65694.16;5076187;28;19950;-60
2023/07/06 00:27:15;;;;;;;;;;;;;;;-144.86;100.00;65694.16;5063785;28;19935;-59
2023/07/06 00:29:56;;;;;;;;;;;;;;;-144.86;100.00;65694.16;5076091;28;20292;-60
2023/07/06 00:32:28;;;;;;;;;;;;;;;-144.86;100.00;65694.16;5074889;28;20048;-60
2023/07/06 00:34:56;;;;;;;;;;;;;;;-144.86;100.00;65694.16;5065481;28;20319;-62
2023/07/06 00:37:26;;;;;;;;;;;;;;;-144.86;100.00;65694.16;5074471;28;20385;-59
2023/07/06 00:39:54;;;;;;;;;;;;;;;-144.86;100.00;65694.16;5065749;28;19951;-58
2023/07/06 00:42:22;;;;;;;;;;;;;;;-144.86;100.00;65694.16;5075525;28;19928;-62
2023/07/06 00:44:54;;;;;;;;;;;;;;;-144.86;100.00;65694.16;5059226;28;19935;-62
2023/07/06 00:47:30;;;;;;;;;;;;;;;-144.86;100.00;65694.16;5057637;28;19939;-61
2023/07/06 00:49:58;;;;;;;;;;;;;;;-144.86;100.00;65694.16;5069522;28;19928;-61
2023/07/06 00:52:28;;;;;;;;;;;;;;;-144.86;100.00;65694.16;5060795;28;19976;-58
2023/07/06 00:54:55;;;;;;;;;;;;;;;-144.86;100.00;65694.16;5057466;28;19985;-61
2023/07/06 00:57:25;;;;;;;;;;;;;;;-144.86;100.00;65694.16;5059071;28;20020;-61
2023/07/06 00:59:53;;;;;;;;;;;;;;;-144.86;100.00;65694.16;5059831;28;20383;-59
2023/07/06 01:02:21;;;;;;;;;;;;;;;-144.86;100.00;65694.16;5057339;28;20023;-59
2023/07/06 01:04:49;;;;;;;;;;;;;;;-144.86;100.00;65694.16;5058503;28;19932;-63
2023/07/06 01:07:17;;;;;;;;;;;;;;;-144.86;100.00;65694.16;5074449;28;19933;-61
2023/07/06 01:09:46;;;;;;;;;;;;;;;-144.86;100.00;65694.16;5058686;28;20015;-60
2023/07/06 01:12:14;;;;;;;;;;;;;;;-144.86;100.00;65694.16;5055715;28;19924;-61
2023/07/06 01:14:43;;;;;;;;;;;;;;;-144.86;100.00;65694.16;5053475;28;20008;-59
2023/07/06 01:17:14;;;;;;;;;;;;;;;-144.86;100.00;65694.16;5057856;28;20369;-59
2023/07/06 01:20:03;;;;;;;;;;;;;;;-144.86;100.00;65694.16;5073298;28;20019;-59
2023/07/06 01:22:47;;;;;;;;;;;;;;;-144.86;100.00;65694.16;5051336;28;19931;-64
2023/07/06 01:25:19;;;;;;;;;;;;;;;-144.86;100.00;65694.16;5060201;28;19928;-59
2023/07/06 01:27:55;;;;;;;;;;;;;;;-144.86;100.00;65694.16;5049660;28;19929;-61
2023/07/06 01:30:30;;;;;;;;;;;;;;;-144.86;100.00;65694.16;5069300;28;19929;-62
2023/07/06 01:33:01;;;;;;;;;;;;;;;-144.86;100.00;65694.16;5055051;28;19990;-63
2023/07/06 01:35:29;;;;;;;;;;;;;;;-144.86;100.00;65694.16;5054746;28;19929;-60
2023/07/06 01:37:59;;;;;;;;;;;;;;;-144.86;100.00;65694.16;5056531;28;19982;-59
2023/07/06 01:40:27;;;;;;;;;;;;;;;-144.86;100.00;65694.16;5068524;28;19986;-62
2023/07/06 01:42:55;;;;;;;;;;;;;;;-144.86;100.00;65694.16;5057902;28;20047;-60
2023/07/06 01:45:23;;;;;;;;;;;;;;;-144.86;100.00;65694.16;5046411;28;20348;-59
2023/07/06 01:47:52;;;;;;;;;;;;;;;-144.86;100.00;65694.16;5031150;28;19936;-61
2023/07/06 01:50:22;;;;;;;;;;;;;;;-144.86;100.00;65694.16;5031343;28;19933;-61
2023/07/06 01:52:59;;;;;;;;;;;;;;;-144.86;100.00;65694.16;5036681;28;19979;-60
2023/07/06 01:55:27;;;;;;;;;;;;;;;-144.86;100.00;65694.16;5035865;28;19925;-62
2023/07/06 01:57:59;;;;;;;;;;;;;;;-144.86;100.00;65694.16;5037786;28;19935;-60
2023/07/06 02:00:30;;;;;;;;;;;;;;;-144.86;100.00;65694.16;5036056;28;19933;-63
2023/07/06 02:02:58;;;;;;;;;;;;;;;-144.86;100.00;65694.16;5036890;28;19933;-61
2023/07/06 02:05:28;;;;;;;;;;;;;;;-144.86;100.00;65694.16;5037935;28;19965;-64
2023/07/06 02:07:55;;;;;;;;;;;;;;;-144.86;100.00;65694.16;5036638;28;19968;-60
2023/07/06 02:10:23;;;;;;;;;;;;;;;-144.86;100.00;65694.16;5035904;28;19928;-61
2023/07/06 02:12:51;;;;;;;;;;;;;;;-144.86;100.00;65694.16;5051349;28;21672;-62
2023/07/06 02:15:19;;;;;;;;;;;;;;;-144.86;100.00;65694.16;5035721;28;19982;-60
2023/07/06 02:17:47;;;;;;;;;;;;;;;-144.86;100.00;65694.16;5036860;28;19986;-60
2023/07/06 02:20:16;;;;;;;;;;;;;;;-144.86;100.00;65694.16;5050495;28;19925;-59
2023/07/06 02:22:45;;;;;;;;;;;;;;;-144.86;100.00;65694.16;5026139;28;19929;-60
2023/07/06 02:25:13;;;;;;;;;;;;;;;-144.86;100.00;65694.16;5030364;28;19990;-62
2023/07/06 02:27:42;;;;;;;;;;;;;;;-144.86;100.00;65694.16;5034634;28;19940;-63
2023/07/06 02:30:10;;;;;;;;;;;;;;;-144.86;100.00;65694.16;5036844;28;19968;-60
2023/07/06 02:32:39;;;;;;;;;;;;;;;-144.86;100.00;65694.16;5051704;28;19972;-66
2023/07/06 02:35:07;;;;;;;;;;;;;;;-144.86;100.00;65694.16;5034226;28;19979;-62
2023/07/06 02:37:39;;;;;;;;;;;;;;;-144.86;100.00;65694.16;5037490;28;19936;-62
2023/07/06 02:40:10;;;;;;;;;;;;;;;-144.86;100.00;65694.16;5035984;28;19983;-62
2023/07/06 02:42:40;;;;;;;;;;;;;;;-144.86;100.00;65694.16;5035205;28;20010;-63
2023/07/06 02:45:09;;;;;;;;;;;;;;;-144.86;100.00;65694.16;5048174;28;19928;-62
2023/07/06 02:47:37;;;;;;;;;;;;;;;-144.86;100.00;65694.16;5078409;28;19924;-61
2023/07/06 02:50:07;;;;;;;;;;;;;;;-144.86;100.00;65694.16;5058962;28;19924;-59
2023/07/06 02:52:36;;;;;;;;;;;;;;;-144.86;100.00;65694.16;5063611;28;19960;-58
2023/07/06 02:55:04;;;;;;;;;;;;;;;-144.86;100.00;65694.16;5062389;28;19932;-62
2023/07/06 02:57:34;;;;;;;;;;;;;;;-144.86;100.00;65694.16;5079364;28;19931;-59
2023/07/06 03:00:09;;;;;;;;;;;;;;;-144.86;100.00;65694.16;5060846;28;19978;-59
2023/07/06 03:02:38;;;;;;;;;;;;;;;-144.86;100.00;65694.16;5076513;28;20019;-62
2023/07/06 03:05:07;;;;;;;;;;;;;;;-144.86;100.00;65694.16;5067099;28;19928;-61
2023/07/06 03:07:35;;;;;;;;;;;;;;;-144.86;100.00;65694.16;5081837;28;19924;-60
2023/07/06 03:10:03;;;;;;;;;;;;;;;-144.86;100.00;65694.16;5079514;28;20369;-62
2023/07/06 03:12:33;;;;;;;;;;;;;;;-144.86;100.00;65694.16;5081463;28;19928;-62
2023/07/06 03:15:02;;;;;;;;;;;;;;;-144.86;100.00;65694.16;5066056;28;20320;-61
2023/07/06 03:17:31;;;;;;;;;;;;;;;-144.86;100.00;65694.16;5061999;28;19932;-60
2023/07/06 03:19:59;;;;;;;;;;;;;;;-144.86;100.00;65694.16;5061913;28;19932;-60
2023/07/06 03:22:27;;;;;;;;;;;;;;;-144.86;100.00;65694.16;5076666;28;19936;-63
2023/07/06 03:24:58;;;;;;;;;;;;;;;-144.86;100.00;65694.16;5074680;28;20004;-61
2023/07/06 03:27:26;;;;;;;;;;;;;;;-144.86;100.00;65694.16;5081821;28;19936;-59
2023/07/06 03:29:54;;;;;;;;;;;;;;;-144.86;100.00;65694.16;5079642;28;19950;-59
2023/07/06 03:32:25;;;;;;;;;;;;;;;-144.86;100.00;65694.16;5080206;28;19951;-62
2023/07/06 03:34:55;;;;;;;;;;;;;;;-144.86;100.00;65694.16;5092276;28;19924;-58
2023/07/06 03:37:23;;;;;;;;;;;;;;;-144.86;100.00;65694.16;5072063;28;19935;-59
2023/07/06 03:39:51;;;;;;;;;;;;;;;-144.86;100.00;65694.16;5089844;28;19996;-61
2023/07/06 03:42:18;;;;;;;;;;;;;;;-144.86;100.00;65694.16;5075242;28;19924;-59
2023/07/06 03:44:46;;;;;;;;;;;;;;;-144.86;100.00;65694.16;5061978;28;19931;-61
2023/07/06 03:47:15;;;;;;;;;;;;;;;-144.86;100.00;65694.16;5063187;28;20700;-58
2023/07/06 03:49:44;;;;;;;;;;;;;;;-144.86;100.00;65694.16;5085073;28;20384;-59
2023/07/06 03:52:16;;;;;;;;;;;;;;;-144.86;100.00;65694.16;5093096;28;20022;-59
2023/07/06 03:54:46;;;;;;;;;;;;;;;-144.86;100.00;65694.16;5087917;28;19924;-59
2023/07/06 03:57:16;;;;;;;;;;;;;;;-144.86;100.00;65694.16;5091429;28;19924;-59
2023/07/06 03:59:44;;;;;;;;;;;;;;;-144.86;100.00;65694.16;5092694;28;20015;-59
2023/07/06 04:02:12;;;;;;;;;;;;;;;-144.86;100.00;65694.16;5092469;28;19932;-60
2023/07/06 04:04:42;;;;;;;;;;;;;;;-144.86;100.00;65694.16;5073741;28;19924;-59
2023/07/06 04:07:11;;;;;;;;;;;;;;;-144.86;100.00;65694.16;5085856;28;19970;-59
2023/07/06 04:09:39;;;;;;;;;;;;;;;-144.86;100.00;65694.16;5066584;28;19971;-60
2023/07/06 04:12:07;;;;;;;;;;;;;;;-144.86;100.00;65694.16;5068859;28;19929;-59
2023/07/06 04:14:35;;;;;;;;;;;;;;;-144.86;100.00;65694.16;5085551;28;19924;-59
2023/07/06 04:17:03;;;;;;;;;;;;;;;-144.86;100.00;65694.16;5073485;28;19924;-59
2023/07/06 04:19:31;;;;;;;;;;;;;;;-144.86;100.00;65694.16;5091334;28;19959;-63
2023/07/06 04:22:00;;;;;;;;;;;;;;;-144.86;100.00;65694.16;5084877;28;20365;-59
2023/07/06 04:24:31;;;;;;;;;;;;;;;-144.86;100.00;65694.16;5092799;28;20348;-59
2023/07/06 04:27:00;;;;;;;;;;;;;;;-144.86;100.00;65694.16;5091397;28;20019;-60
2023/07/06 04:29:29;;;;;;;;;;;;;;;-144.86;100.00;65694.16;5086166;28;20026;-59
2023/07/06 04:31:57;;;;;;;;;;;;;;;-144.86;100.00;65694.16;5089494;28;20403;-64
2023/07/06 04:34:25;;;;;;;;;;;;;;;-144.86;100.00;65694.16;5090155;28;19978;-61
2023/07/06 04:36:52;;;;;;;;;;;;;;;-144.86;100.00;65694.16;5090903;28;19932;-58
2023/07/06 04:39:20;;;;;;;;;;;;;;;-144.86;100.00;65694.16;5083311;28;19932;-59
2023/07/06 04:41:51;;;;;;;;;;;;;;;-144.86;100.00;65694.16;5072892;28;20250;-60
2023/07/06 04:44:18;;;;;;;;;;;;;;;-144.86;100.00;65694.16;5089704;28;19977;-61
2023/07/06 04:46:47;;;;;;;;;;;;;;;-144.86;100.00;65694.16;5088492;28;20345;-58
2023/07/06 04:49:15;;;;;;;;;;;;;;;-144.86;100.00;65694.16;5082824;28;19932;-60
2023/07/06 04:51:42;;;;;;;;;;;;;;;-144.86;100.00;65694.16;5083598;28;20335;-58
2023/07/06 04:54:13;;;;;;;;;;;;;;;-144.86;100.00;65694.16;5090551;28;19924;-58
2023/07/06 04:56:41;;;;;;;;;;;;;;;-144.86;100.00;65694.16;5085598;28;20012;-58
2023/07/06 04:59:10;;;;;;;;;;;;;;;-144.86;100.00;65694.16;5091236;28;19956;-59
2023/07/06 05:01:38;;;;;;;;;;;;;;;-144.86;100.00;65694.16;5086750;28;20019;-59
2023/07/06 05:04:06;;;;;;;;;;;;;;;-144.86;100.00;65694.16;5063975;28;20315;-60
2023/07/06 05:06:36;;;;;;;;;;;;;;;-144.86;100.00;65694.16;5085617;28;19931;-60
2023/07/06 05:09:04;;;;;;;;;;;;;;;-144.86;100.00;65694.16;5091155;28;19924;-59
2023/07/06 05:11:32;;;;;;;;;;;;;;;-144.86;100.00;65694.16;5082702;28;20429;-60
2023/07/06 05:13:59;;;;;;;;;;;;;;;-144.86;100.00;65694.16;5081473;28;19931;-59
2023/07/06 05:16:29;;;;;;;;;;;;;;;-144.86;100.00;65694.16;5077213;28;20380;-59
2023/07/06 05:18:57;;;;;;;;;;;;;;;-144.86;100.00;65694.16;5088140;28;19933;-67
2023/07/06 05:21:27;;;;;;;;;;;;;;;-144.86;100.00;65694.16;5069760;28;19956;-59
2023/07/06 05:23:55;;;;;;;;;;;;;;;-144.86;100.00;65694.16;5087866;28;19963;-59
2023/07/06 05:26:24;;;;;;;;;;;;;;;-144.86;100.00;65694.16;5084563;28;19925;-59
2023/07/06 05:28:53;;;;;;;;;;;;;;;-144.86;100.00;65694.16;5076406;28;20324;-59
2023/07/06 05:31:20;;;;;;;;;;;;;;;-144.86;100.00;65694.16;5065043;28;19925;-59
2023/07/06 05:33:49;;;;;;;;;;;;;;;-144.86;100.00;65694.16;5085889;28;20468;-58
2023/07/06 05:36:17;;;;;;;;;;;;;;;-144.86;100.00;65694.16;5088883;28;20260;-60
2023/07/06 05:38:45;;;;;;;;;;;;;;;-144.86;100.00;65694.16;5085859;28;20336;-60
2023/07/06 05:41:12;;;;;;;;;;;;;;;-144.86;100.00;65694.16;5064900;28;21643;-58
2023/07/06 05:43:40;;;;;;;;;;;;;;;-144.86;100.00;65694.16;5068146;28;19967;-61
2023/07/06 05:46:08;;;;;;;;;;;;;;;-144.86;100.00;65694.16;5084949;28;19924;-60
2023/07/06 06:03:19;;;;;;;;;;;;;;;-144.86;100.00;65694.16;5602860;23;20463;-61
2023/07/06 06:05:50;;;;;;;;;;;;;;;-144.86;100.00;65694.16;4923900;29;19969;-60
2023/07/06 06:08:21;;;;;;;;;;;;;;;-144.86;100.00;65694.16;4938583;28;19923;-62
2023/07/06 06:10:50;;;;;;;;;;;;;;;-144.86;100.00;65694.16;4931520;29;19922;-59
2023/07/06 06:13:19;;;;;;;;;;;;;;;-144.86;100.00;65694.16;4931958;29;19927;-60
2023/07/06 06:15:48;;;;;;;;;;;;;;;-144.86;100.00;65694.16;4924529;28;19923;-60
2023/07/06 06:18:18;;;;;;;;;;;;;;;-144.86;100.00;65694.16;4933545;29;19923;-60
2023/07/06 06:20:47;;;;;;;;;;;;;;;-144.86;100.00;65694.16;4935874;28;20423;-58
2023/07/06 06:23:20;;;;;;;;;;;;;;;-144.86;100.00;65694.16;4927841;29;20157;-58
2023/07/06 06:25:48;;;;;;;;;;;;;;;-144.86;100.00;65694.16;4927028;29;19946;-59
2023/07/06 06:28:16;;;;;;;;;;;;;;;-144.86;100.00;65694.16;4931215;29;19927;-58
2023/07/06 06:30:44;;;;;;;;;;;;;;;-144.86;100.00;65694.16;4924159;28;20010;-59
2023/07/06 06:33:11;;;;;;;;;;;;;;;-144.86;100.00;65694.16;4932392;29;19926;-59
2023/07/06 06:35:43;;;;;;;;;;;;;;;-144.86;100.00;65694.16;4934069;29;19931;-63
2023/07/06 06:38:11;;;;;;;;;;;;;;;-144.86;100.00;65694.16;4935133;29;20189;-59
2023/07/06 06:40:39;;;;;;;;;;;;;;;-144.86;100.00;65694.16;4933516;29;20209;-59
2023/07/06 06:43:07;;;;;;;;;;;;;;;-144.86;100.00;65694.16;4935694;28;19923;-59
2023/07/06 06:45:35;;;;;;;;;;;;;;;-144.86;100.00;65694.16;4934322;29;20328;-59
2023/07/06 06:48:03;;;;;;;;;;;;;;;-144.86;100.00;65694.16;4931625;29;20025;-59
2023/07/06 06:50:31;;;;;;;;;;;;;;;-144.86;100.00;65694.16;4940192;29;19935;-60
2023/07/06 06:53:02;;;;;;;;;;;;;;;-144.86;100.00;65694.16;4936385;29;20396;-58
2023/07/06 06:55:30;;;;;;;;;;;;;;;-144.86;100.00;65694.16;4936341;29;19930;-59
2023/07/06 06:57:58;;;;;;;;;;;;;;;-144.86;100.00;65694.16;4933213;29;19923;-65
2023/07/06 07:00:26;;;;;;;;;;;;;;;-144.86;100.00;65694.16;4926482;28;19927;-58
2023/07/06 07:02:53;;;;;;;;;;;;;;;-144.86;100.00;65694.16;4937074;29;19954;-58
2023/07/06 07:05:21;;;;;;;;;;;;;;;-144.86;100.00;65694.16;4931126;29;19970;-60
2023/07/06 07:07:50;;;;;;;;;;;;;;;-144.86;100.00;65694.16;4934527;29;19926;-63
2023/07/06 07:10:22;;;;;;;;;;;;;;;-144.86;100.00;65694.16;4929472;29;19966;-62
2023/07/06 07:12:49;;;;;;;;;;;;;;;-144.86;100.00;65694.16;4938048;29;19927;-59
2023/07/06 07:15:19;;;;;;;;;;;;;;;-144.86;100.00;65694.16;4928951;28;19970;-59
2023/07/06 07:17:46;;;;;;;;;;;;;;;-144.86;100.00;65694.16;4932853;29;19958;-58
2023/07/06 07:20:14;;;;;;;;;;;;;;;-144.86;100.00;65694.16;4938722;29;20423;-59
2023/07/06 07:22:44;;;;;;;;;;;;;;;-144.86;100.00;65694.16;4930166;29;20022;-58
2023/07/06 07:25:12;;;;;;;;;;;;;;;-144.86;100.00;65694.16;4933541;29;20029;-59
2023/07/06 07:27:41;;;;;;;;;;;;;;;-144.86;100.00;65694.16;4935889;28;20369;-58
2023/07/06 07:30:11;;;;;;;;;;;;;;;-144.86;100.00;65694.16;4928383;29;19926;-58
2023/07/06 07:32:41;;;;;;;;;;;;;;;-144.86;100.00;65694.16;4928155;29;19935;-60
2023/07/06 07:35:09;;;;;;;;;;;;;;;-144.86;100.00;65694.16;4933612;29;20345;-59
2023/07/06 07:37:38;;;;;;;;;;;;;;;-144.86;100.00;65694.16;4934791;29;19965;-60
2023/07/06 07:40:06;;;;;;;;;;;;;;;-144.86;100.00;65694.16;4929649;29;20009;-58
2023/07/06 07:42:34;;;;;;;;;;;;;;;-144.86;100.00;65694.16;4936911;29;19927;-58
2023/07/06 07:45:05;;;;;;;;;;;;;;;-144.86;100.00;65694.16;4934146;29;19989;-58
2023/07/06 07:47:37;;;;;;;;;;;;;;;-144.86;100.00;65694.16;4925679;29;19927;-63
2023/07/06 07:50:06;;;;;;;;;;;;;;;-144.86;100.00;65694.16;4929167;29;20373;-66
2023/07/06 07:52:34;;;;;;;;;;;;;;;-144.86;100.00;65694.16;4924500;29;19974;-63
2023/07/06 07:55:06;;;;;;;;;;;;;;;-144.86;100.00;65694.16;4943033;28;20444;-60
2023/07/06 07:57:34;;;;;;;;;;;;;;;-144.86;100.00;65694.16;4926606;29;19933;-59
2023/07/06 08:00:06;;;;;;;;;;;;;;;-144.86;100.00;65694.16;4927422;29;19943;-59
2023/07/06 08:02:42;;;;;;;;;;;;;;;-144.86;100.00;65694.16;4929940;29;19935;-59
2023/07/06 08:05:10;;;;;;;;;;;;;;;-144.86;100.00;65694.16;4928276;29;19947;-59
2023/07/06 08:07:38;;;;;;;;;;;;;;;-144.86;100.00;65694.16;4932193;29;19926;-59
2023/07/06 08:10:08;;;;;;;;;;;;;;;-144.86;100.00;65694.16;4926314;29;20380;-59
2023/07/06 08:12:37;;;;;;;;;;;;;;;-144.86;100.00;65694.16;4928674;29;20460;-63
2023/07/06 08:15:06;;;;;;;;;;;;;;;-144.86;100.00;65694.16;4932109;29;19934;-66
2023/07/06 08:17:36;;;;;;;;;;;;;;;-144.86;100.00;65694.16;4933097;28;19974;-58
2023/07/06 08:20:11;;;;;;;;;;;;;;;-144.86;100.00;65694.16;4932344;29;19931;-59
2023/07/06 08:23:01;;;;;;;;;;;;;;;-144.86;100.00;65694.16;4926931;29;19970;-60
2023/07/06 08:25:29;;;;;;;;;;;;;;;-144.86;100.00;65694.16;4930728;29;19927;-58
2023/07/06 08:27:57;;;;;;;;;;;;;;;-144.86;100.00;65694.16;4924428;29;19962;-59
2023/07/06 08:30:25;;;;;;;;;;;;;;;-144.86;100.00;65694.16;4923587;28;20160;-58
2023/07/06 08:32:53;;;;;;;;;;;;;;;-144.86;100.00;65694.16;4941338;28;19935;-58
2023/07/06 08:35:22;;;;;;;;;;;;;;;-144.86;100.00;65694.16;4930833;29;19958;-58
2023/07/06 08:37:50;;;;;;;;;;;;;;;-144.86;100.00;65694.16;4937476;29;19949;-58
2023/07/06 08:40:26;;;;;;;;;;;;;;;-144.86;100.00;65694.16;4931114;29;20149;-63
2023/07/06 08:42:56;;;;;;;;;;;;;;;-144.86;100.00;65694.16;4931825;29;20337;-58
2023/07/06 08:45:25;;;;;;;;;;;;;;;-144.86;100.00;65694.16;4930452;29;19931;-63
2023/07/06 08:47:56;;;;;;;;;;;;;;;-144.86;100.00;65694.16;4924975;29;19939;-60
2023/07/06 08:50:28;;;;;;;;;;;;;;;-144.86;100.00;65694.16;4937123;29;20555;-60
2023/07/06 08:52:57;;;;;;;;;;;;;;;-144.86;100.00;65694.16;4925668;29;19938;-60
2023/07/06 08:55:26;;;;;;;;;;;;;;;-144.86;100.00;65694.16;4932862;29;20001;-60
2023/07/06 08:57:55;;;;;;;;;;;;;;;-144.86;100.00;65694.16;4928396;29;19939;-60
2023/07/06 09:00:25;;;;;;;;;;;;;;;-144.86;100.00;65694.16;4930595;29;20534;-60
2023/07/06 09:02:54;;;;;;;;;;;;;;;-144.86;100.00;65694.16;4927529;29;19931;-60
2023/07/06 09:05:23;;;;;;;;;;;;;;;-144.86;100.00;65694.16;4928256;29;20451;-60
2023/07/06 09:07:53;;;;;;;;;;;;;;;-144.86;100.00;65694.16;4931983;29;19937;-59
2023/07/06 09:10:23;;;;;;;;;;;;;;;-144.86;100.00;65694.16;4925971;29;19933;-61
2023/07/06 09:12:53;;;;;;;;;;;;;;;-144.86;100.00;65694.16;4931110;29;19982;-59
2023/07/06 09:15:26;;;;;;;;;;;;;;;-144.86;100.00;65694.16;4964552;28;19926;-59
2023/07/06 09:17:57;;;;;;;;;;;;;;;-144.86;100.00;65694.16;4923944;29;19933;-59
2023/07/06 09:20:25;;;;;;;;;;;;;;;-144.86;100.00;65694.16;4936629;29;19974;-62
2023/07/06 09:22:56;;;;;;;;;;;;;;;-144.86;100.00;65694.16;4930827;29;19934;-59
2023/07/06 09:25:27;;;;;;;;;;;;;;;-144.86;100.00;65694.16;4928451;29;19926;-59
2023/07/06 09:27:56;;;;;;;;;;;;;;;-144.86;100.00;65694.16;4924757;29;19927;-61
2023/07/06 09:30:29;;;;;;;;;;;;;;;-144.86;100.00;65694.16;4932516;29;20063;-58
2023/07/06 09:33:03;;;;;;;;;;;;;;;-144.86;100.00;65694.16;4926643;29;19930;-62
2023/07/06 09:35:36;;;;;;;;;;;;;;;-144.86;100.00;65694.16;4933227;29;19927;-59
2023/07/06 09:38:06;;;;;;;;;;;;;;;-144.86;100.00;65694.16;4926775;29;19927;-60
2023/07/06 09:40:34;;;;;;;;;;;;;;;-144.86;100.00;65694.16;4928473;29;20365;-59
2023/07/06 09:43:03;;;;;;;;;;;;;;;-144.86;100.00;65694.16;4931003;29;19931;-59
2023/07/06 09:45:31;;;;;;;;;;;;;;;-144.86;100.00;65694.16;4928392;29;20365;-60
2023/07/06 09:48:01;;;;;;;;;;;;;;;-144.86;100.00;65694.16;4924686;29;19926;-65
2023/07/06 09:50:32;;;;;;;;;;;;;;;-144.86;100.00;65694.16;4926067;29;19927;-61
2023/07/06 09:53:05;;;;;;;;;;;;;;;-144.86;100.00;65694.16;4923121;29;19930;-60
2023/07/06 09:55:35;;;;;;;;;;;;;;;-144.86;100.00;65694.16;4917769;29;19971;-61
2023/07/06 09:58:03;;;;;;;;;;;;;;;-144.86;100.00;65694.16;4946896;28;19930;-64
2023/07/06 10:00:32;;;;;;;;;;;;;;;-144.86;100.00;65694.16;4942982;28;19927;-60
2023/07/06 10:03:08;;;;;;;;;;;;;;;-144.86;100.00;65694.16;4925869;29;19927;-60
2023/07/06 10:05:38;;;;;;;;;;;;;;;-144.86;100.00;65694.16;4920515;29;19950;-59
2023/07/06 10:08:11;;;;;;;;;;;;;;;-144.86;100.00;65694.16;4925736;29;19937;-59
2023/07/06 10:10:48;;;;;;;;;;;;;;;-144.86;100.00;65694.16;4929058;29;19998;-59
2023/07/06 10:13:19;;;;;;;;;;;;;;;-144.86;100.00;65694.16;4929528;29;19930;-59
2023/07/06 10:15:50;;;;;;;;;;;;;;;-144.86;100.00;65694.16;4932330;29;20337;-59
2023/07/06 10:18:18;;;;;;;;;;;;;;;-144.86;100.00;65694.16;4933062;29;19981;-59
2023/07/06 10:20:47;;;;;;;;;;;;;;;-144.86;100.00;65694.16;4925620;29;19970;-59
2023/07/06 10:23:18;;;;;;;;;;;;;;;-144.86;100.00;65694.16;4930051;29;19927;-59
2023/07/06 10:25:50;;;;;;;;;;;;;;;-144.86;100.00;65694.16;4936880;29;19986;-59
2023/07/06 10:28:20;;;;;;;;;;;;;;;-144.86;100.00;65694.16;4933163;29;20399;-60
2023/07/06 10:30:50;;;;;;;;;;;;;;;-144.86;100.00;65694.16;4931471;29;19949;-58
2023/07/06 10:33:19;;;;;;;;;;;;;;;-144.86;100.00;65694.16;4930650;29;19980;-59
2023/07/06 10:35:50;;;;;;;;;;;;;;;-144.86;100.00;65694.16;4929275;29;19990;-61
2023/07/06 10:38:19;;;;;;;;;;;;;;;-144.86;100.00;65694.16;4917854;29;19930;-59
2023/07/06 10:40:52;;;;;;;;;;;;;;;-144.86;100.00;65694.16;4923492;29;19931;-59
2023/07/06 10:43:23;;;;;;;;;;;;;;;-144.86;100.00;65694.16;4928241;29;19931;-60
2023/07/06 10:45:54;;;;;;;;;;;;;;;-144.86;100.00;65694.16;4927311;29;19926;-63
2023/07/06 10:48:30;;;;;;;;;;;;;;;-144.86;100.00;65694.16;4928464;28;20432;-60
2023/07/06 10:51:19;;;;;;;;;;;;;;;-144.86;100.00;65694.16;4926149;29;20304;-64
2023/07/06 10:53:51;;;;;;;;;;;;;;;-144.86;100.00;65694.16;4927170;29;19933;-59
2023/07/06 10:56:22;;;;;;;;;;;;;;;-144.86;100.00;65694.16;4928908;29;19974;-59
2023/07/06 10:58:55;;;;;;;;;;;;;;;-144.86;100.00;65694.16;4929979;29;19933;-59
2023/07/06 11:01:29;;;;;;;;;;;;;;;-144.86;100.00;65694.16;4926741;29;19938;-60
2023/07/06 11:04:00;;;;;;;;;;;;;;;-144.86;100.00;65694.16;4926611;29;19935;-64
2023/07/06 11:06:49;;;;;;;;;;;;;;;-144.86;100.00;65694.16;4932041;29;20408;-61
2023/07/06 11:09:18;;;;;;;;;;;;;;;-144.86;100.00;65694.16;4926323;29;20026;-61
2023/07/06 11:12:01;;;;;;;;;;;;;;;-144.86;100.00;65694.16;4938830;28;19930;-61
2023/07/06 11:14:39;;;;;;;;;;;;;;;-144.86;100.00;65694.16;4920210;29;20005;-60
2023/07/06 11:17:13;;;;;;;;;;;;;;;-144.86;100.00;65694.16;4927492;29;20435;-59
2023/07/06 11:19:42;;;;;;;;;;;;;;;-144.86;100.00;65694.16;4932334;29;19982;-60
2023/07/06 11:22:12;;;;;;;;;;;;;;;-144.86;100.00;65694.16;4930059;29;20348;-59
2023/07/06 11:24:41;;;;;;;;;;;;;;;-144.86;100.00;65694.16;4934530;29;19966;-59
2023/07/06 11:27:18;;;;;;;;;;;;;;;-144.86;100.00;65694.16;4930095;29;20391;-61
2023/07/06 11:29:47;;;;;;;;;;;;;;;-144.86;100.00;65694.16;4933634;28;20705;-59
2023/07/06 11:32:18;;;;;;;;;;;;;;;-144.86;100.00;65694.16;4930760;29;19930;-60
2023/07/06 11:34:49;;;;;;;;;;;;;;;-144.86;100.00;65694.16;4934589;29;19926;-61
2023/07/06 11:37:19;;;;;;;;;;;;;;;-144.86;100.00;65694.16;4931359;29;19927;-59
2023/07/06 11:39:49;;;;;;;;;;;;;;;-144.86;100.00;65694.16;4928065;29;20432;-60
2023/07/06 11:42:27;;;;;;;;;;;;;;;-144.86;100.00;65694.16;4927411;29;19934;-61
2023/07/06 11:44:57;;;;;;;;;;;;;;;-144.86;100.00;65694.16;4932927;29;19933;-60
2023/07/06 11:47:30;;;;;;;;;;;;;;;-144.86;100.00;65694.16;4936803;29;20013;-61
2023/07/06 11:49:59;;;;;;;;;;;;;;;-144.86;100.00;65694.16;4924162;29;19935;-68
2023/07/06 11:52:29;;;;;;;;;;;;;;;-144.86;100.00;65694.16;4933424;29;19935;-60
2023/07/06 11:55:06;;;;;;;;;;;;;;;-144.86;100.00;65694.16;4929889;29;20361;-59
2023/07/06 11:57:42;;;;;;;;;;;;;;;-144.86;100.00;65694.16;4934520;29;19949;-59
2023/07/06 12:00:32;;;;;;;;;;;;;;;-144.86;100.00;65694.16;4929518;29;19937;-59
2023/07/06 12:03:03;;;;;;;;;;;;;;;-144.86;100.00;65694.16;4933112;29;19930;-60
2023/07/06 12:05:35;;;;;;;;;;;;;;;-144.86;100.00;65694.16;4931193;29;19970;-59
2023/07/06 12:08:04;;;;;;;;;;;;;;;-144.86;100.00;65694.16;4933335;29;19934;-59
2023/07/06 12:10:33;;;;;;;;;;;;;;;-144.86;100.00;65694.16;4928840;29;19938;-60
2023/07/06 12:13:05;;;;;;;;;;;;;;;-144.86;100.00;65694.16;4927280;29;19949;-60
2023/07/06 12:15:36;;;;;;;;;;;;;;;-144.86;100.00;65694.16;4922604;29;20348;-60
2023/07/06 12:18:04;;;;;;;;;;;;;;;-144.86;100.00;65694.16;4921829;29;19931;-60
2023/07/06 12:20:33;;;;;;;;;;;;;;;-144.86;100.00;65694.16;4940375;28;19970;-60
2023/07/06 12:23:01;;;;;;;;;;;;;;;-144.86;100.00;65694.16;4931332;29;19945;-60
2023/07/06 12:25:29;;;;;;;;;;;;;;;-144.86;100.00;65694.16;4927891;29;19990;-58
2023/07/06 12:27:58;;;;;;;;;;;;;;;-144.86;100.00;65694.16;4930839;29;19927;-59
2023/07/06 12:30:28;;;;;;;;;;;;;;;-144.86;100.00;65694.16;4933476;29;19927;-59
2023/07/06 12:33:04;;;;;;;;;;;;;;;-144.86;100.00;65694.16;4930843;29;19969;-63
2023/07/06 12:35:33;;;;;;;;;;;;;;;-144.86;100.00;65694.16;4924464;29;20029;-61
2023/07/06 12:38:03;;;;;;;;;;;;;;;-144.86;100.00;65694.16;4932879;29;20026;-60
2023/07/06 12:40:33;;;;;;;;;;;;;;;-144.86;100.00;65694.16;4929122;29;19935;-61
2023/07/06 12:43:04;;;;;;;;;;;;;;;-144.86;100.00;65694.16;4962251;28;19942;-59
2023/07/06 12:45:32;;;;;;;;;;;;;;;-144.86;100.00;65694.16;4930228;29;19939;-60
2023/07/06 12:48:03;;;;;;;;;;;;;;;-144.86;100.00;65694.16;4931695;29;19927;-60